createdAt,value
2023-06-22T00:02:26.050Z,75974.56
2023-06-22T00:04:52.504Z,75974.56
2023-06-22T00:07:18.952Z,75982.72
2023-06-22T00:09:45.313Z,75984.75
2023-06-22T00:12:11.678Z,75994.94
2023-06-22T00:14:38.059Z,75999.03
2023-06-22T00:17:04.611Z,76003.09
2023-06-22T00:19:30.999Z,75994.94
2023-06-22T00:22:01.157Z,75994.94
2023-06-22T00:24:27.569Z,75997.00
2023-06-22T00:26:53.996Z,76007.19
2023-06-22T00:29:20.377Z,76013.28
2023-06-22T00:31:46.884Z,76015.34
2023-06-22T00:34:13.369Z,76017.38
2023-06-22T00:36:41.915Z,76021.44
2023-06-22T00:39:09.030Z,76027.56
2023-06-22T00:41:36.334Z,76025.53
2023-06-22T00:44:05.031Z,76023.50
2023-06-22T00:46:31.715Z,76031.66
2023-06-22T00:49:00.892Z,76031.66
2023-06-22T00:51:28.761Z,76027.56
2023-06-22T00:53:55.538Z,76019.41
2023-06-22T00:56:25.827Z,76025.53
2023-06-22T00:58:53.740Z,76027.56
2023-06-22T01:01:24.514Z,76023.50
2023-06-22T01:03:58.682Z,76023.50
2023-06-22T01:06:39.297Z,76031.66
2023-06-22T01:09:31.484Z,76029.59
2023-06-22T01:12:02.356Z,76023.50
2023-06-22T01:14:57.810Z,76025.53
2023-06-22T01:17:25.685Z,76031.66
2023-06-22T01:19:57.390Z,76035.72
2023-06-22T01:22:31.850Z,76047.97
2023-06-22T01:25:11.911Z,76043.88
2023-06-22T01:27:46.577Z,76050.00
2023-06-22T01:30:16.681Z,76050.00
2023-06-22T01:32:44.057Z,76052.03
2023-06-22T01:35:11.909Z,76054.06
2023-06-22T01:37:39.654Z,76052.03
2023-06-22T01:40:09.268Z,76056.13
2023-06-22T01:42:37.288Z,76052.03
2023-06-22T01:45:04.379Z,76050.00
2023-06-22T01:47:30.920Z,76054.06
2023-06-22T01:49:57.735Z,76056.13
2023-06-22T01:52:24.157Z,76062.22
2023-06-22T01:54:50.625Z,76070.38
2023-06-22T01:57:17.280Z,76080.56
2023-06-22T02:00:02.383Z,76082.63
2023-06-22T02:02:57.916Z,76092.81
2023-06-22T02:05:27.713Z,76098.94
2023-06-22T02:08:11.596Z,76111.16
2023-06-22T02:10:42.059Z,76117.28
2023-06-22T02:13:11.056Z,76125.44
2023-06-22T02:15:37.923Z,76123.41
2023-06-22T02:18:04.877Z,76119.31
2023-06-22T02:20:31.610Z,76119.31
2023-06-22T02:22:58.419Z,76121.34
2023-06-22T02:25:25.098Z,76123.41
2023-06-22T02:27:51.517Z,76127.47
2023-06-22T02:30:17.972Z,76133.59
2023-06-22T02:32:44.489Z,76129.50
2023-06-22T02:35:11.100Z,76139.69
2023-06-22T02:37:42.352Z,76143.78
2023-06-22T02:40:10.457Z,76143.78
2023-06-22T02:42:38.378Z,76151.94
2023-06-22T02:45:05.292Z,76151.94
2023-06-22T02:47:31.779Z,76145.81
2023-06-22T02:49:58.449Z,76151.94
2023-06-22T02:52:25.366Z,76139.69
2023-06-22T02:54:51.774Z,76145.81
2023-06-22T02:57:18.418Z,76137.66
2023-06-22T02:59:44.953Z,76139.69
2023-06-22T03:02:12.940Z,76145.81
2023-06-22T03:04:40.098Z,76145.81
2023-06-22T03:07:07.151Z,76147.84
2023-06-22T03:09:34.096Z,76145.81
2023-06-22T03:12:00.528Z,76145.81
2023-06-22T03:14:34.482Z,76151.94
2023-06-22T03:17:04.227Z,76151.94
2023-06-22T03:19:32.233Z,76151.94
2023-06-22T03:22:01.177Z,76143.78
2023-06-22T03:24:29.635Z,76141.75
2023-06-22T03:26:57.510Z,76156.00
2023-06-22T03:29:24.935Z,76158.06
2023-06-22T03:31:51.707Z,76162.13
2023-06-22T03:34:18.552Z,76174.38
2023-06-22T03:36:46.314Z,76168.25
2023-06-22T03:39:12.775Z,76174.38
2023-06-22T03:41:40.577Z,76176.41
2023-06-22T03:44:07.360Z,76170.28
2023-06-22T03:46:33.787Z,76170.28
2023-06-22T03:49:00.253Z,76170.28
2023-06-22T03:51:26.626Z,76162.13
2023-06-22T03:53:53.052Z,76153.97
2023-06-22T03:56:21.329Z,76156.00
2023-06-22T03:58:47.785Z,76145.81
2023-06-22T04:01:14.150Z,76145.81
2023-06-22T04:03:42.253Z,76145.81
2023-06-22T04:06:08.837Z,76147.84
2023-06-22T04:08:35.408Z,76143.78
2023-06-22T04:11:01.892Z,76151.94
2023-06-22T04:13:28.317Z,76141.75
2023-06-22T04:15:54.836Z,76143.78
2023-06-22T04:18:21.239Z,76145.81
2023-06-22T04:20:47.917Z,76147.84
2023-06-22T04:23:14.426Z,76141.75
2023-06-22T04:25:40.838Z,76143.78
2023-06-22T04:28:13.642Z,76143.78
2023-06-22T04:30:47.434Z,76145.81
2023-06-22T04:33:15.535Z,76143.78
2023-06-22T04:35:44.623Z,76139.69
2023-06-22T04:38:14.089Z,76133.59
2023-06-22T04:40:41.051Z,76133.59
2023-06-22T04:43:07.661Z,76127.47
2023-06-22T04:45:34.361Z,76119.31
2023-06-22T04:48:00.899Z,76119.31
2023-06-22T04:50:27.533Z,76113.19
2023-06-22T04:52:54.200Z,76109.13
2023-06-22T04:55:21.188Z,76100.97
2023-06-22T04:57:49.737Z,76105.03
2023-06-22T05:00:20.717Z,76107.09
2023-06-22T05:02:47.722Z,76100.97
2023-06-22T05:05:14.972Z,76105.03
2023-06-22T05:07:44.347Z,76098.94
2023-06-22T05:10:13.859Z,76100.97
2023-06-22T05:12:41.032Z,76113.19
2023-06-22T05:15:10.794Z,76111.16
2023-06-22T05:17:42.192Z,76107.09
2023-06-22T05:20:13.256Z,76111.16
2023-06-22T05:22:41.931Z,76107.09
2023-06-22T05:25:10.252Z,76107.09
2023-06-22T05:27:40.451Z,76111.16
2023-06-22T05:30:08.818Z,76100.97
2023-06-22T05:32:35.952Z,76109.13
2023-06-22T05:35:03.968Z,76117.28
2023-06-22T05:37:30.618Z,76115.25
2023-06-22T05:39:58.192Z,76127.47
2023-06-22T05:42:26.361Z,76131.56
2023-06-22T05:44:54.291Z,76127.47
2023-06-22T05:47:20.868Z,76125.44
2023-06-22T05:49:47.351Z,76131.56
2023-06-22T05:52:13.761Z,76127.47
2023-06-22T05:54:40.199Z,76125.44
2023-06-22T05:57:06.591Z,76133.59
2023-06-22T05:59:32.954Z,76133.59
2023-06-22T06:01:59.655Z,76129.50
2023-06-22T06:04:26.927Z,76125.44
2023-06-22T06:06:53.423Z,76131.56
2023-06-22T06:09:19.803Z,76133.59
2023-06-22T06:11:46.175Z,76131.56
2023-06-22T06:14:12.572Z,76133.59
2023-06-22T06:16:39.017Z,76137.66
2023-06-22T06:19:05.405Z,76127.47
2023-06-22T06:21:31.773Z,76127.47
2023-06-22T06:23:58.217Z,76135.63
2023-06-22T06:26:30.697Z,76133.59
2023-06-22T06:28:58.409Z,76139.69
2023-06-22T06:31:25.035Z,76139.69
2023-06-22T06:33:51.495Z,76141.75
2023-06-22T06:36:18.076Z,76129.50
2023-06-22T06:38:44.488Z,76137.66
2023-06-22T06:41:10.877Z,76139.69
2023-06-22T06:43:37.246Z,76135.63
2023-06-22T06:46:04.297Z,76139.69
2023-06-22T06:48:30.850Z,76143.78
2023-06-22T06:50:57.379Z,76133.59
2023-06-22T06:53:23.770Z,76129.50
2023-06-22T06:55:50.155Z,76129.50
2023-06-22T06:58:17.346Z,76121.34
2023-06-22T07:00:44.621Z,76131.56
2023-06-22T07:03:11.012Z,76123.41
2023-06-22T07:05:37.490Z,76119.31
2023-06-22T07:08:04.033Z,76115.25
2023-06-22T07:10:30.676Z,76119.31
2023-06-22T07:12:58.213Z,76117.28
2023-06-22T07:15:24.765Z,76111.16
2023-06-22T07:17:51.207Z,76109.13
2023-06-22T07:20:17.674Z,76100.97
2023-06-22T07:22:48.500Z,76094.84
2023-06-22T07:25:18.552Z,76096.88
2023-06-22T07:28:02.893Z,76094.84
2023-06-22T07:30:30.530Z,76088.72
2023-06-22T07:32:57.826Z,76090.78
2023-06-22T07:35:24.757Z,76088.72
2023-06-22T07:37:51.360Z,76080.56
2023-06-22T07:40:17.831Z,76076.50
2023-06-22T07:42:45.172Z,76074.47
2023-06-22T07:45:11.673Z,76064.25
2023-06-22T07:47:38.169Z,76062.22
2023-06-22T07:50:05.578Z,76056.13
2023-06-22T07:52:32.314Z,76050.00
2023-06-22T07:54:58.931Z,76047.97
2023-06-22T07:57:33.189Z,76043.88
2023-06-22T08:00:00.742Z,76033.69
2023-06-22T08:02:27.776Z,76029.59
2023-06-22T08:05:00.608Z,76013.28
2023-06-22T08:07:34.488Z,76009.22
2023-06-22T08:10:01.271Z,76001.06
2023-06-22T08:12:27.677Z,75999.03
2023-06-22T08:14:54.048Z,75990.88
2023-06-22T08:17:20.494Z,75978.63
2023-06-22T08:19:46.922Z,75968.44
2023-06-22T08:22:13.296Z,75960.28
2023-06-22T08:24:39.661Z,75954.19
2023-06-22T08:27:09.762Z,75937.88
2023-06-22T08:29:36.849Z,75923.59
2023-06-22T08:32:03.401Z,75907.28
2023-06-22T08:34:29.896Z,75890.97
2023-06-22T08:36:56.350Z,75868.56
2023-06-22T08:39:22.834Z,75856.31
2023-06-22T08:41:49.333Z,75835.94
2023-06-22T08:44:19.615Z,75811.47
2023-06-22T08:46:46.528Z,75797.19
2023-06-22T08:49:12.922Z,75791.09
2023-06-22T08:51:39.344Z,75784.97
2023-06-22T08:54:06.014Z,75776.81
2023-06-22T08:56:32.521Z,75776.81
2023-06-22T08:58:58.988Z,75766.63
2023-06-22T09:01:25.408Z,75758.47
2023-06-22T09:03:56.721Z,75750.31
2023-06-22T09:06:23.400Z,75752.34
2023-06-22T09:08:50.185Z,75748.28
2023-06-22T09:11:17.153Z,75742.16
2023-06-22T09:13:43.662Z,75736.03
2023-06-22T09:16:10.186Z,75731.97
2023-06-22T09:18:37.194Z,75734.00
2023-06-22T09:21:03.774Z,75736.03
2023-06-22T09:23:30.332Z,75729.91
2023-06-22T09:25:56.842Z,75734.00
2023-06-22T09:28:23.266Z,75729.91
2023-06-22T09:30:49.711Z,75725.84
2023-06-22T09:33:16.187Z,75719.72
2023-06-22T09:35:42.662Z,75717.69
2023-06-22T09:38:09.102Z,75719.72
2023-06-22T09:40:40.908Z,75709.53
2023-06-22T09:43:07.408Z,75713.63
2023-06-22T09:45:33.958Z,75703.41
2023-06-22T09:48:00.427Z,75697.31
2023-06-22T09:50:27.336Z,75687.13
2023-06-22T09:52:56.120Z,75681.00
2023-06-22T09:55:23.584Z,75685.06
2023-06-22T09:57:50.118Z,75670.81
2023-06-22T10:00:18.151Z,75664.69
2023-06-22T10:02:45.549Z,75656.53
2023-06-22T10:05:12.772Z,75658.56
2023-06-22T10:07:43.196Z,75658.56
2023-06-22T10:10:10.938Z,75648.38
2023-06-22T10:12:37.410Z,75621.88
2023-06-22T10:15:04.234Z,75607.59
2023-06-22T10:17:31.182Z,75591.28
2023-06-22T10:19:57.630Z,75575.00
2023-06-22T10:22:24.095Z,75556.63
2023-06-22T10:24:50.613Z,75538.28
2023-06-22T10:27:17.331Z,75524.03
2023-06-22T10:29:43.976Z,75511.78
2023-06-22T10:32:10.387Z,75493.44
2023-06-22T10:34:36.836Z,75477.13
2023-06-22T10:37:03.259Z,75477.13
2023-06-22T10:39:29.709Z,75450.63
2023-06-22T10:41:57.127Z,75440.44
2023-06-22T10:44:23.645Z,75426.19
2023-06-22T10:46:50.070Z,75422.09
2023-06-22T10:49:16.525Z,75418.03
2023-06-22T10:51:42.972Z,75422.09
2023-06-22T10:54:09.382Z,75418.03
2023-06-22T10:56:35.857Z,75424.13
2023-06-22T10:59:02.887Z,75434.34
2023-06-22T11:01:35.067Z,75440.44
2023-06-22T11:04:02.859Z,75440.44
2023-06-22T11:06:29.517Z,75438.41
2023-06-22T11:09:04.387Z,75450.63
2023-06-22T11:11:33.660Z,75454.72
2023-06-22T11:14:00.122Z,75460.84
2023-06-22T11:16:26.644Z,75466.94
2023-06-22T11:18:53.080Z,75471.03
2023-06-22T11:21:19.512Z,75468.97
2023-06-22T11:23:46.501Z,75473.06
2023-06-22T11:26:12.985Z,75471.03
2023-06-22T11:28:39.501Z,75471.03
2023-06-22T11:31:20.706Z,75468.97
2023-06-22T11:33:52.195Z,75471.03
2023-06-22T11:36:20.420Z,75479.19
2023-06-22T11:38:46.882Z,75481.22
2023-06-22T11:41:13.362Z,75495.50
2023-06-22T11:43:39.804Z,75505.69
2023-06-22T11:46:06.402Z,75511.78
2023-06-22T11:48:33.700Z,75524.03
2023-06-22T11:51:00.455Z,75530.13
2023-06-22T11:53:27.735Z,75548.50
2023-06-22T11:55:55.376Z,75560.72
2023-06-22T11:58:22.294Z,75570.91
2023-06-22T12:00:51.570Z,75581.09
2023-06-22T12:03:19.945Z,75593.34
2023-06-22T12:05:46.625Z,75589.25
2023-06-22T12:08:14.502Z,75601.50
2023-06-22T12:10:40.929Z,75601.50
2023-06-22T12:13:07.412Z,75601.50
2023-06-22T12:15:33.877Z,75615.75
2023-06-22T12:18:00.377Z,75619.84
2023-06-22T12:20:26.858Z,75619.84
2023-06-22T12:22:53.729Z,75619.84
2023-06-22T12:25:20.186Z,75623.91
2023-06-22T12:27:46.593Z,75632.06
2023-06-22T12:30:13.072Z,75628.00
2023-06-22T12:32:39.560Z,75636.16
2023-06-22T12:35:08.341Z,75644.31
2023-06-22T12:37:34.840Z,75644.31
2023-06-22T12:40:01.362Z,75640.22
2023-06-22T12:42:29.143Z,75634.09
2023-06-22T12:44:56.197Z,75632.06
2023-06-22T12:47:22.802Z,75613.72
2023-06-22T12:49:49.352Z,75605.56
2023-06-22T12:52:15.969Z,75619.84
2023-06-22T12:54:53.975Z,75621.88
2023-06-22T12:57:21.594Z,75617.81
2023-06-22T12:59:48.014Z,75615.75
2023-06-22T13:02:14.695Z,75617.81
2023-06-22T13:04:41.182Z,75617.81
2023-06-22T13:07:20.297Z,75605.56
2023-06-22T13:09:47.618Z,75605.56
2023-06-22T13:12:14.125Z,75607.59
2023-06-22T13:14:40.540Z,75609.66
2023-06-22T13:17:06.968Z,75607.59
2023-06-22T13:19:33.610Z,75605.56
2023-06-22T13:22:00.942Z,75603.53
2023-06-22T13:24:27.354Z,75605.56
2023-06-22T13:26:53.933Z,75609.66
2023-06-22T13:29:20.406Z,75607.59
2023-06-22T13:31:46.924Z,75613.72
2023-06-22T13:34:13.556Z,75615.75
2023-06-22T13:36:40.007Z,75617.81
2023-06-22T13:39:06.508Z,75623.91
2023-06-22T13:41:33.151Z,75625.94
2023-06-22T13:43:59.583Z,75621.88
2023-06-22T13:46:26.172Z,75611.69
2023-06-22T13:48:54.402Z,75609.66
2023-06-22T13:51:23.297Z,75605.56
2023-06-22T13:53:49.804Z,75603.53
2023-06-22T13:56:16.216Z,75603.53
2023-06-22T13:58:43.950Z,75595.38
2023-06-22T14:01:17.287Z,75585.19
2023-06-22T14:03:46.611Z,75572.94
2023-06-22T14:06:13.133Z,75570.91
2023-06-22T14:08:42.122Z,75568.88
2023-06-22T14:11:09.009Z,75568.88
2023-06-22T14:13:36.733Z,75558.69
2023-06-22T14:16:03.334Z,75556.63
2023-06-22T14:18:29.765Z,75552.56
2023-06-22T14:20:56.197Z,75548.50
2023-06-22T14:23:22.645Z,75552.56
2023-06-22T14:25:49.094Z,75548.50
2023-06-22T14:28:17.352Z,75540.34
2023-06-22T14:30:43.936Z,75532.19
2023-06-22T14:33:10.497Z,75542.38
2023-06-22T14:35:36.992Z,75540.34
2023-06-22T14:38:03.426Z,75546.44
2023-06-22T14:40:30.712Z,75552.56
2023-06-22T14:42:58.752Z,75536.25
2023-06-22T14:45:25.444Z,75532.19
2023-06-22T14:47:52.076Z,75524.03
2023-06-22T14:50:18.539Z,75522.00
2023-06-22T14:52:45.381Z,75517.91
2023-06-22T14:55:11.900Z,75503.63
2023-06-22T14:57:38.408Z,75511.78
2023-06-22T15:00:07.382Z,75499.56
2023-06-22T15:02:34.080Z,75501.59
2023-06-22T15:05:00.526Z,75503.63
2023-06-22T15:07:26.984Z,75505.69
2023-06-22T15:09:53.403Z,75501.59
2023-06-22T15:12:19.840Z,75468.97
2023-06-22T15:14:46.319Z,75456.75
2023-06-22T15:17:15.206Z,75475.09
2023-06-22T15:19:41.733Z,75477.13
2023-06-22T15:22:08.873Z,75468.97
2023-06-22T15:24:35.556Z,75471.03
2023-06-22T15:27:02.300Z,75464.91
2023-06-22T15:29:31.153Z,75473.06
2023-06-22T15:31:58.685Z,75479.19
2023-06-22T15:34:27.586Z,75483.25
2023-06-22T15:36:54.022Z,75485.28
2023-06-22T15:39:20.469Z,75489.38
2023-06-22T15:41:46.975Z,75489.38
2023-06-22T15:44:13.466Z,75491.41
2023-06-22T15:46:39.935Z,75483.25
2023-06-22T15:49:06.915Z,75481.22
2023-06-22T15:51:33.347Z,75487.34
2023-06-22T15:53:59.782Z,75513.84
2023-06-22T15:56:26.226Z,75548.50
2023-06-22T15:58:52.741Z,75589.25
2023-06-22T16:01:19.152Z,75613.72
2023-06-22T16:03:45.615Z,75597.41
2023-06-22T16:06:11.980Z,75570.91
2023-06-22T16:08:38.479Z,75572.94
2023-06-22T16:11:04.927Z,75587.22
2023-06-22T16:13:31.307Z,75603.53
2023-06-22T16:15:57.734Z,75623.91
2023-06-22T16:18:24.119Z,75652.44
2023-06-22T16:20:50.681Z,75642.25
2023-06-22T16:23:17.176Z,75640.22
2023-06-22T16:25:44.123Z,75652.44
2023-06-22T16:28:10.536Z,75642.25
2023-06-22T16:30:36.923Z,75648.38
2023-06-22T16:33:03.733Z,75642.25
2023-06-22T16:35:30.409Z,75654.50
2023-06-22T16:37:57.038Z,75646.34
2023-06-22T16:40:23.802Z,75662.66
2023-06-22T16:42:53.219Z,75678.97
2023-06-22T16:45:20.477Z,75685.06
2023-06-22T16:47:48.426Z,75693.22
2023-06-22T16:50:15.000Z,75703.41
2023-06-22T16:52:42.837Z,75703.41
2023-06-22T16:55:10.636Z,75705.47
2023-06-22T16:57:37.236Z,75705.47
2023-06-22T17:00:05.804Z,75693.22
2023-06-22T17:02:35.638Z,75672.84
2023-06-22T17:05:02.477Z,75668.75
2023-06-22T17:07:31.365Z,75670.81
2023-06-22T17:09:58.435Z,75668.75
2023-06-22T17:12:26.043Z,75660.59
2023-06-22T17:14:53.582Z,75664.69
2023-06-22T17:17:20.132Z,75678.97
2023-06-22T17:19:48.408Z,75678.97
2023-06-22T17:22:14.831Z,75672.84
2023-06-22T17:24:41.596Z,75668.75
2023-06-22T17:27:08.314Z,75681.00
2023-06-22T17:29:35.559Z,75678.97
2023-06-22T17:32:05.610Z,75691.19
2023-06-22T17:34:32.525Z,75695.25
2023-06-22T17:37:03.062Z,75699.34
2023-06-22T17:39:30.116Z,75693.22
2023-06-22T17:41:56.588Z,75687.13
2023-06-22T17:44:27.876Z,75681.00
2023-06-22T17:46:55.845Z,75678.97
2023-06-22T17:49:22.889Z,75664.69
2023-06-22T17:51:54.933Z,75674.88
2023-06-22T17:54:27.592Z,75670.81
2023-06-22T17:57:01.895Z,75664.69
2023-06-22T17:59:30.018Z,75668.75
2023-06-22T18:01:56.388Z,75678.97
2023-06-22T18:04:22.807Z,75674.88
2023-06-22T18:06:49.558Z,75678.97
2023-06-22T18:09:17.426Z,75664.69
2023-06-22T18:11:46.275Z,75668.75
2023-06-22T18:14:18.045Z,75672.84
2023-06-22T18:16:46.354Z,75670.81
2023-06-22T18:19:15.554Z,75662.66
2023-06-22T18:21:42.591Z,75664.69
2023-06-22T18:24:10.147Z,75681.00
2023-06-22T18:26:37.972Z,75668.75
2023-06-22T18:29:04.419Z,75660.59
2023-06-22T18:31:32.220Z,75664.69
2023-06-22T18:33:59.518Z,75646.34
2023-06-22T18:36:42.072Z,75646.34
2023-06-22T18:39:09.976Z,75636.16
2023-06-22T18:41:41.843Z,75646.34
2023-06-22T18:44:18.719Z,75632.06
2023-06-22T18:46:45.276Z,75640.22
2023-06-22T18:49:15.926Z,75634.09
2023-06-22T18:52:07.487Z,75638.19
2023-06-22T18:54:40.996Z,75640.22
2023-06-22T18:57:14.054Z,75640.22
2023-06-22T18:59:56.026Z,75636.16
2023-06-22T19:02:47.323Z,75642.25
2023-06-22T19:05:13.850Z,75638.19
2023-06-22T19:07:52.900Z,75636.16
2023-06-22T19:10:27.677Z,75630.03
2023-06-22T19:12:58.656Z,75621.88
2023-06-22T19:15:35.308Z,75634.09
2023-06-22T19:18:24.519Z,75628.00
2023-06-22T19:21:02.540Z,75632.06
2023-06-22T19:23:28.926Z,75625.94
2023-06-22T19:25:59.718Z,75630.03
2023-06-22T19:28:26.994Z,75636.16
2023-06-22T19:30:59.369Z,75642.25
2023-06-22T19:33:27.654Z,75646.34
2023-06-22T19:35:56.698Z,75642.25
2023-06-22T19:38:25.247Z,75652.44
2023-06-22T19:40:51.682Z,75658.56
2023-06-22T19:43:18.453Z,75674.88
2023-06-22T19:45:45.494Z,75670.81
2023-06-22T19:48:13.370Z,75674.88
2023-06-22T19:50:43.464Z,75683.03
2023-06-22T19:53:19.042Z,75683.03
2023-06-22T19:55:51.639Z,75709.53
2023-06-22T19:58:20.766Z,75727.88
2023-06-22T20:00:57.199Z,75740.13
2023-06-22T20:03:28.789Z,75740.13
2023-06-22T20:05:56.301Z,75762.53
2023-06-22T20:08:22.697Z,75780.88
2023-06-22T20:10:49.451Z,75791.09
2023-06-22T20:13:19.594Z,75819.63
2023-06-22T20:15:47.643Z,75829.81
2023-06-22T20:18:15.462Z,75835.94
2023-06-22T20:20:47.239Z,75840.00
2023-06-22T20:23:19.029Z,75852.25
2023-06-22T20:25:47.225Z,75874.66
2023-06-22T20:28:17.911Z,75874.66
2023-06-22T20:31:05.496Z,75895.06
2023-06-22T20:33:32.646Z,75901.16
2023-06-22T20:35:59.760Z,75909.31
2023-06-22T20:38:28.845Z,75905.25
2023-06-22T20:40:56.387Z,75915.44
2023-06-22T20:43:24.977Z,75931.75
2023-06-22T20:45:55.399Z,75931.75
2023-06-22T20:48:36.978Z,75941.94
2023-06-22T20:51:05.106Z,75952.13
2023-06-22T20:53:32.596Z,75962.34
2023-06-22T20:55:59.161Z,75988.84
2023-06-22T20:58:25.593Z,75999.03
2023-06-22T21:00:51.966Z,76019.41
2023-06-22T21:03:18.483Z,76027.56
2023-06-22T21:05:45.284Z,76043.88
2023-06-22T21:08:11.659Z,76064.25
2023-06-22T21:10:38.031Z,76072.44
2023-06-22T21:13:04.546Z,76078.53
2023-06-22T21:15:31.164Z,76082.63
2023-06-22T21:17:57.893Z,76088.72
2023-06-22T21:20:24.288Z,76094.84
2023-06-22T21:22:50.660Z,76094.84
2023-06-22T21:25:17.132Z,76105.03
2023-06-22T21:27:44.299Z,76109.13
2023-06-22T21:30:13.291Z,76111.16
2023-06-22T21:32:43.135Z,76117.28
2023-06-22T21:35:12.979Z,76115.25
2023-06-22T21:37:39.464Z,76117.28
2023-06-22T21:40:07.129Z,76127.47
2023-06-22T21:42:33.594Z,76139.69
2023-06-22T21:44:59.968Z,76145.81
2023-06-22T21:47:26.381Z,76143.78
2023-06-22T21:49:52.886Z,76147.84
2023-06-22T21:52:19.347Z,76168.25
2023-06-22T21:54:45.753Z,76168.25
2023-06-22T21:57:12.871Z,76176.41
2023-06-22T21:59:39.302Z,76174.38
2023-06-22T22:02:06.091Z,76176.41
2023-06-22T22:04:32.505Z,76180.47
2023-06-22T22:06:58.887Z,76184.56
2023-06-22T22:09:25.373Z,76192.72
2023-06-22T22:11:51.833Z,76186.59
2023-06-22T22:14:19.261Z,76202.91
2023-06-22T22:16:46.166Z,76198.81
2023-06-22T22:19:13.703Z,76209.03
2023-06-22T22:21:40.160Z,76211.06
2023-06-22T22:24:06.688Z,76213.09
2023-06-22T22:26:33.235Z,76215.13
2023-06-22T22:28:59.660Z,76227.38
2023-06-22T22:31:26.172Z,76231.44
2023-06-22T22:33:53.175Z,76239.59
2023-06-22T22:36:19.755Z,76239.59
2023-06-22T22:38:46.219Z,76233.50
2023-06-22T22:41:12.587Z,76243.69
2023-06-22T22:43:39.056Z,76243.69
2023-06-22T22:46:05.588Z,76249.81
2023-06-22T22:48:32.238Z,76249.81
2023-06-22T22:51:00.524Z,76262.03
2023-06-22T22:53:27.443Z,76262.03
2023-06-22T22:55:53.838Z,76260.00
2023-06-22T22:58:20.508Z,76268.16
2023-06-22T23:00:47.092Z,76266.13
2023-06-22T23:03:13.598Z,76268.16
2023-06-22T23:05:40.055Z,76272.22
2023-06-22T23:08:07.873Z,76276.31
2023-06-22T23:10:34.598Z,76290.59
2023-06-22T23:13:01.042Z,76292.63
2023-06-22T23:15:27.471Z,76302.81
2023-06-22T23:17:53.874Z,76313.00
2023-06-22T23:20:20.987Z,76306.88
2023-06-22T23:22:54.610Z,76317.09
2023-06-22T23:25:20.980Z,76337.47
2023-06-22T23:27:48.445Z,76335.44
2023-06-22T23:30:14.914Z,76337.47
2023-06-22T23:32:42.048Z,76361.94
2023-06-22T23:35:10.889Z,76370.09
2023-06-22T23:37:37.712Z,76366.03
2023-06-22T23:40:11.824Z,76363.97
2023-06-22T23:42:38.746Z,76374.19
2023-06-22T23:45:05.578Z,76386.41
2023-06-22T23:47:31.955Z,76390.50
2023-06-22T23:49:58.470Z,76382.34
2023-06-22T23:52:24.884Z,76394.56
2023-06-22T23:54:51.261Z,76404.75
2023-06-22T23:57:17.635Z,76404.75
2023-06-22T23:59:47.424Z,76414.94
